sensor_id;sensor_type;location;lat;lon;timestamp;pressure;altitude;pressure_sealevel;temperature;humidity
38225;BME280;24025;48.138;11.428;2024-01-30T00:01:06;96883.66;;;1.50;70.27
38225;BME280;24025;48.138;11.428;2024-01-30T00:03:37;96878.69;;;1.48;70.03
38225;BME280;24025;48.138;11.428;2024-01-30T00:06:09;96883.94;;;1.48;70.22
38225;BME280;24025;48.138;11.428;2024-01-30T00:08:40;96876.59;;;1.40;70.31
38225;BME280;24025;48.138;11.428;2024-01-30T00:11:12;96885.28;;;1.40;70.60
38225;BME280;24025;48.138;11.428;2024-01-30T00:13:43;96884.25;;;1.41;70.72
38225;BME280;24025;48.138;11.428;2024-01-30T00:16:21;96882.66;;;1.40;70.72
38225;BME280;24025;48.138;11.428;2024-01-30T00:18:53;96882.97;;;1.34;71.01
38225;BME280;24025;48.138;11.428;2024-01-30T00:21:25;96888.72;;;1.36;70.50
38225;BME280;24025;48.138;11.428;2024-01-30T00:23:56;96887.44;;;1.33;70.92
38225;BME280;24025;48.138;11.428;2024-01-30T00:26:28;96883.47;;;1.36;70.61
38225;BME280;24025;48.138;11.428;2024-01-30T00:28:59;96887.94;;;1.35;70.79
38225;BME280;24025;48.138;11.428;2024-01-30T00:31:31;96886.09;;;1.36;70.55
38225;BME280;24025;48.138;11.428;2024-01-30T00:34:03;96892.41;;;1.35;70.56
38225;BME280;24025;48.138;11.428;2024-01-30T00:36:34;96887.44;;;1.33;71.08
38225;BME280;24025;48.138;11.428;2024-01-30T00:39:06;96891.91;;;1.33;71.18
38225;BME280;24025;48.138;11.428;2024-01-30T00:41:40;96887.94;;;1.30;70.86
38225;BME280;24025;48.138;11.428;2024-01-30T00:44:11;96887.94;;;1.30;71.13
38225;BME280;24025;48.138;11.428;2024-01-30T00:46:43;96898.19;;;1.32;70.43
38225;BME280;24025;48.138;11.428;2024-01-30T00:49:14;96892.69;;;1.28;71.25
38225;BME280;24025;48.138;11.428;2024-01-30T00:51:46;96895.03;;;1.30;70.49
38225;BME280;24025;48.138;11.428;2024-01-30T00:54:17;96893.75;;;1.27;70.50
38225;BME280;24025;48.138;11.428;2024-01-30T00:56:49;96892.47;;;1.20;70.83
38225;BME280;24025;48.138;11.428;2024-01-30T00:59:20;96889.31;;;1.18;71.23
38225;BME280;24025;48.138;11.428;2024-01-30T01:01:52;96893.50;;;1.24;71.23
38225;BME280;24025;48.138;11.428;2024-01-30T01:04:23;96896.16;;;1.19;70.99
38225;BME280;24025;48.138;11.428;2024-01-30T01:06:55;96895.91;;;1.10;71.42
38225;BME280;24025;48.138;11.428;2024-01-30T01:09:26;96898.81;;;1.08;71.09
38225;BME280;24025;48.138;11.428;2024-01-30T01:11:58;96895.16;;;0.99;71.66
38225;BME280;24025;48.138;11.428;2024-01-30T01:14:30;96887.50;;;1.03;71.28
38225;BME280;24025;48.138;11.428;2024-01-30T01:17:01;96893.03;;;1.01;72.00
38225;BME280;24025;48.138;11.428;2024-01-30T01:19:33;96883.56;;;1.05;71.51
38225;BME280;24025;48.138;11.428;2024-01-30T01:22:04;96889.34;;;1.07;71.54
38225;BME280;24025;48.138;11.428;2024-01-30T01:24:36;96895.44;;;0.98;71.96
38225;BME280;24025;48.138;11.428;2024-01-30T01:27:07;96889.13;;;0.99;71.65
38225;BME280;24025;48.138;11.428;2024-01-30T01:29:39;96892.22;;;1.06;71.36
38225;BME280;24025;48.138;11.428;2024-01-30T01:32:10;96896.69;;;1.05;71.23
38225;BME280;24025;48.138;11.428;2024-01-30T01:34:42;96888.81;;;1.05;71.68
38225;BME280;24025;48.138;11.428;2024-01-30T01:37:14;96882.81;;;0.95;72.00
38225;BME280;24025;48.138;11.428;2024-01-30T01:39:45;96886.25;;;0.90;71.83
38225;BME280;24025;48.138;11.428;2024-01-30T01:42:17;96887.00;;;0.96;72.02
38225;BME280;24025;48.138;11.428;2024-01-30T01:44:48;96884.69;;;0.89;72.14
38225;BME280;24025;48.138;11.428;2024-01-30T01:47:20;96888.34;;;0.93;71.55
38225;BME280;24025;48.138;11.428;2024-01-30T01:49:52;96884.41;;;0.91;71.61
38225;BME280;24025;48.138;11.428;2024-01-30T01:52:23;96882.03;;;0.94;71.34
38225;BME280;24025;48.138;11.428;2024-01-30T01:54:55;96887.31;;;0.89;71.64
38225;BME280;24025;48.138;11.428;2024-01-30T01:57:26;96895.16;;;0.94;72.04
38225;BME280;24025;48.138;11.428;2024-01-30T01:59:58;96890.41;;;0.96;71.48
38225;BME280;24025;48.138;11.428;2024-01-30T02:02:30;96898.28;;;0.96;71.11
38225;BME280;24025;48.138;11.428;2024-01-30T02:05:02;96892.00;;;0.92;71.26
38225;BME280;24025;48.138;11.428;2024-01-30T02:07:34;96895.16;;;0.94;71.07
38225;BME280;24025;48.138;11.428;2024-01-30T02:10:07;96886.53;;;0.89;71.64
38225;BME280;24025;48.138;11.428;2024-01-30T02:12:39;96889.94;;;0.84;71.49
38225;BME280;24025;48.138;11.428;2024-01-30T02:15:13;96888.09;;;0.79;71.55
38225;BME280;24025;48.138;11.428;2024-01-30T02:17:44;96882.34;;;0.67;72.29
38225;BME280;24025;48.138;11.428;2024-01-30T02:20:16;96880.53;;;0.63;72.86
38225;BME280;24025;48.138;11.428;2024-01-30T02:22:47;96883.63;;;0.70;72.33
38225;BME280;24025;48.138;11.428;2024-01-30T02:25:19;96881.56;;;0.67;72.14
38225;BME280;24025;48.138;11.428;2024-01-30T02:27:51;96884.19;;;0.72;71.95
38225;BME280;24025;48.138;11.428;2024-01-30T02:30:22;96884.97;;;0.67;71.89
38225;BME280;24025;48.138;11.428;2024-01-30T02:32:54;96880.22;;;0.69;72.43
38225;BME280;24025;48.138;11.428;2024-01-30T02:35:25;96888.38;;;0.73;72.15
38225;BME280;24025;48.138;11.428;2024-01-30T02:37:57;96876.56;;;0.70;72.56
38225;BME280;24025;48.138;11.428;2024-01-30T02:40:28;96881.56;;;0.72;71.69
38225;BME280;24025;48.138;11.428;2024-01-30T02:43:00;96879.72;;;0.72;71.93
38225;BME280;24025;48.138;11.428;2024-01-30T02:45:32;96878.41;;;0.65;72.47
38225;BME280;24025;48.138;11.428;2024-01-30T02:48:04;96876.31;;;0.67;71.99
38225;BME280;24025;48.138;11.428;2024-01-30T02:50:35;96876.03;;;0.68;72.51
38225;BME280;24025;48.138;11.428;2024-01-30T02:53:07;96871.88;;;0.62;72.45
38225;BME280;24025;48.138;11.428;2024-01-30T02:55:38;96868.44;;;0.67;72.48
38225;BME280;24025;48.138;11.428;2024-01-30T02:58:10;96863.44;;;0.65;72.18
38225;BME280;24025;48.138;11.428;2024-01-30T03:00:41;96868.44;;;0.62;73.15
38225;BME280;24025;48.138;11.428;2024-01-30T03:03:13;96865.03;;;0.61;72.57
38225;BME280;24025;48.138;11.428;2024-01-30T03:05:44;96869.47;;;0.61;72.59
38225;BME280;24025;48.138;11.428;2024-01-30T03:08:16;96865.81;;;0.62;72.55
38225;BME280;24025;48.138;11.428;2024-01-30T03:10:47;96857.69;;;0.58;72.49
38225;BME280;24025;48.138;11.428;2024-01-30T03:13:19;96864.75;;;0.52;72.38
38225;BME280;24025;48.138;11.428;2024-01-30T03:15:50;96857.69;;;0.53;72.37
38225;BME280;24025;48.138;11.428;2024-01-30T03:18:22;96861.34;;;0.52;72.75
38225;BME280;24025;48.138;11.428;2024-01-30T03:20:53;96851.13;;;0.50;72.43
38225;BME280;24025;48.138;11.428;2024-01-30T03:23:25;96861.63;;;0.55;72.49
38225;BME280;24025;48.138;11.428;2024-01-30T03:25:56;96855.06;;;0.53;72.35
38225;BME280;24025;48.138;11.428;2024-01-30T03:28:27;96856.63;;;0.59;72.45
38225;BME280;24025;48.138;11.428;2024-01-30T03:30:59;96854.53;;;0.56;71.91
38225;BME280;24025;48.138;11.428;2024-01-30T03:33:30;96859.00;;;0.55;72.03
38225;BME280;24025;48.138;11.428;2024-01-30T03:36:03;96854.53;;;0.56;71.86
38225;BME280;24025;48.138;11.428;2024-01-30T03:38:34;96853.75;;;0.55;72.16
38225;BME280;24025;48.138;11.428;2024-01-30T03:41:08;96857.44;;;0.54;71.81
38225;BME280;24025;48.138;11.428;2024-01-30T03:43:41;96848.25;;;0.47;72.70
38225;BME280;24025;48.138;11.428;2024-01-30T03:46:12;96849.84;;;0.48;72.48
38225;BME280;24025;48.138;11.428;2024-01-30T03:48:44;96849.03;;;0.47;72.31
38225;BME280;24025;48.138;11.428;2024-01-30T03:51:16;96847.44;;;0.51;72.36
38225;BME280;24025;48.138;11.428;2024-01-30T03:53:48;96848.00;;;0.53;72.19
38225;BME280;24025;48.138;11.428;2024-01-30T03:56:19;96848.25;;;0.52;72.11
38225;BME280;24025;48.138;11.428;2024-01-30T03:58:51;96853.25;;;0.48;72.53
38225;BME280;24025;48.138;11.428;2024-01-30T04:01:22;96861.63;;;0.50;72.43
38225;BME280;24025;48.138;11.428;2024-01-30T04:03:54;96859.53;;;0.47;72.32
38225;BME280;24025;48.138;11.428;2024-01-30T04:06:26;96851.66;;;0.47;72.04
38225;BME280;24025;48.138;11.428;2024-01-30T04:08:57;96855.06;;;0.43;72.24
38225;BME280;24025;48.138;11.428;2024-01-30T04:11:29;96853.25;;;0.38;72.58
38225;BME280;24025;48.138;11.428;2024-01-30T04:14:00;96858.78;;;0.37;72.72
38225;BME280;24025;48.138;11.428;2024-01-30T04:16:31;96851.41;;;0.34;72.54
38225;BME280;24025;48.138;11.428;2024-01-30T04:19:03;96851.13;;;0.35;72.63
38225;BME280;24025;48.138;11.428;2024-01-30T04:21:35;96845.13;;;0.30;72.53
38225;BME280;24025;48.138;11.428;2024-01-30T04:24:06;96847.47;;;0.31;72.52
38225;BME280;24025;48.138;11.428;2024-01-30T04:26:37;96848.53;;;0.30;72.49
38225;BME280;24025;48.138;11.428;2024-01-30T04:29:09;96850.63;;;0.33;72.55
38225;BME280;24025;48.138;11.428;2024-01-30T04:31:40;96848.78;;;0.34;72.72
38225;BME280;24025;48.138;11.428;2024-01-30T04:34:12;96845.38;;;0.33;72.99
38225;BME280;24025;48.138;11.428;2024-01-30T04:36:46;96844.59;;;0.33;72.73
38225;BME280;24025;48.138;11.428;2024-01-30T04:39:18;96842.25;;;0.36;72.43
38225;BME280;24025;48.138;11.428;2024-01-30T04:41:49;96845.91;;;0.35;72.54
38225;BME280;24025;48.138;11.428;2024-01-30T04:44:21;96845.66;;;0.32;72.60
38225;BME280;24025;48.138;11.428;2024-01-30T04:46:52;96851.13;;;0.35;72.57
38225;BME280;24025;48.138;11.428;2024-01-30T04:49:24;96850.13;;;0.36;72.44
38225;BME280;24025;48.138;11.428;2024-01-30T04:51:56;96840.13;;;0.38;72.40
38225;BME280;24025;48.138;11.428;2024-01-30T04:54:28;96847.75;;;0.40;72.23
38225;BME280;24025;48.138;11.428;2024-01-30T04:56:59;96850.13;;;0.36;72.16
38225;BME280;24025;48.138;11.428;2024-01-30T04:59:31;96847.22;;;0.38;72.37
38225;BME280;24025;48.138;11.428;2024-01-30T05:02:02;96845.91;;;0.40;72.40
38225;BME280;24025;48.138;11.428;2024-01-30T05:04:34;96848.78;;;0.39;72.46
38225;BME280;24025;48.138;11.428;2024-01-30T05:07:06;96855.59;;;0.35;72.66
38225;BME280;24025;48.138;11.428;2024-01-30T05:09:37;96854.81;;;0.34;72.32
38225;BME280;24025;48.138;11.428;2024-01-30T05:12:09;96856.13;;;0.32;72.60
38225;BME280;24025;48.138;11.428;2024-01-30T05:14:40;96860.34;;;0.33;72.45
38225;BME280;24025;48.138;11.428;2024-01-30T05:17:12;96854.84;;;0.29;72.48
38225;BME280;24025;48.138;11.428;2024-01-30T05:19:44;96863.22;;;0.31;72.65
38225;BME280;24025;48.138;11.428;2024-01-30T05:22:15;96857.47;;;0.29;72.42
38225;BME280;24025;48.138;11.428;2024-01-30T05:24:49;96859.56;;;0.27;72.32
38225;BME280;24025;48.138;11.428;2024-01-30T05:27:20;96854.31;;;0.22;72.45
38225;BME280;24025;48.138;11.428;2024-01-30T05:29:52;96862.69;;;0.24;72.70
38225;BME280;24025;48.138;11.428;2024-01-30T05:32:23;96861.13;;;0.23;72.31
38225;BME280;24025;48.138;11.428;2024-01-30T05:34:55;96862.19;;;0.22;72.68
38225;BME280;24025;48.138;11.428;2024-01-30T05:37:26;96862.69;;;0.24;72.44
38225;BME280;24025;48.138;11.428;2024-01-30T05:39:58;96864.25;;;0.25;72.64
38225;BME280;24025;48.138;11.428;2024-01-30T05:42:29;96862.97;;;0.22;72.51
38225;BME280;24025;48.138;11.428;2024-01-30T05:45:01;96873.19;;;0.19;72.63
38225;BME280;24025;48.138;11.428;2024-01-30T05:47:32;96867.97;;;0.19;72.45
38225;BME280;24025;48.138;11.428;2024-01-30T05:50:04;96868.75;;;0.19;72.50
38225;BME280;24025;48.138;11.428;2024-01-30T05:52:36;96870.56;;;0.19;72.64
38225;BME280;24025;48.138;11.428;2024-01-30T05:55:07;96872.66;;;0.17;72.28
38225;BME280;24025;48.138;11.428;2024-01-30T05:57:39;96869.78;;;0.13;72.67
38225;BME280;24025;48.138;11.428;2024-01-30T06:00:11;96874.25;;;0.13;72.83
38225;BME280;24025;48.138;11.428;2024-01-30T06:02:43;96882.38;;;0.11;72.86
38225;BME280;24025;48.138;11.428;2024-01-30T06:05:14;96877.63;;;0.08;72.76
38225;BME280;24025;48.138;11.428;2024-01-30T06:07:46;96872.41;;;0.13;72.59
38225;BME280;24025;48.138;11.428;2024-01-30T06:10:18;96872.38;;;0.08;72.89
38225;BME280;24025;48.138;11.428;2024-01-30T06:12:50;96871.88;;;0.06;72.95
38225;BME280;24025;48.138;11.428;2024-01-30T06:15:21;96867.94;;;0.04;72.86
38225;BME280;24025;48.138;11.428;2024-01-30T06:17:53;96878.44;;;0.04;73.14
38225;BME280;24025;48.138;11.428;2024-01-30T06:20:24;96870.28;;;0.05;73.15
38225;BME280;24025;48.138;11.428;2024-01-30T06:22:56;96867.16;;;0.03;73.69
38225;BME280;24025;48.138;11.428;2024-01-30T06:25:28;96869.50;;;0.05;73.51
38225;BME280;24025;48.138;11.428;2024-01-30T06:28:00;96865.56;;;0.07;73.85
38225;BME280;24025;48.138;11.428;2024-01-30T06:30:31;96876.34;;;0.01;74.71
38225;BME280;24025;48.138;11.428;2024-01-30T06:33:02;96877.66;;;0.03;74.19
38225;BME280;24025;48.138;11.428;2024-01-30T06:35:34;96884.72;;;0.03;74.16
38225;BME280;24025;48.138;11.428;2024-01-30T06:38:07;96890.47;;;0.05;74.26
38225;BME280;24025;48.138;11.428;2024-01-30T06:40:38;96887.06;;;0.04;74.37
38225;BME280;24025;48.138;11.428;2024-01-30T06:43:10;96893.09;;;-0.01;74.25
38225;BME280;24025;48.138;11.428;2024-01-30T06:45:42;96898.06;;;-0.04;74.60
38225;BME280;24025;48.138;11.428;2024-01-30T06:48:14;96893.63;;;0.02;74.39
38225;BME280;24025;48.138;11.428;2024-01-30T06:50:45;96902.03;;;0.04;74.15
38225;BME280;24025;48.138;11.428;2024-01-30T06:53:17;96896.78;;;0.09;74.04
38225;BME280;24025;48.138;11.428;2024-01-30T06:55:49;96902.03;;;0.14;73.91
38225;BME280;24025;48.138;11.428;2024-01-30T06:58:20;96899.41;;;0.14;74.04
38225;BME280;24025;48.138;11.428;2024-01-30T07:00:52;96897.03;;;0.17;73.80
38225;BME280;24025;48.138;11.428;2024-01-30T07:03:23;96900.19;;;0.24;73.58
38225;BME280;24025;48.138;11.428;2024-01-30T07:05:55;96900.47;;;0.28;73.26
38225;BME280;24025;48.138;11.428;2024-01-30T07:08:26;96904.16;;;0.27;73.44
38225;BME280;24025;48.138;11.428;2024-01-30T07:10:58;96896.81;;;0.29;73.30
38225;BME280;24025;48.138;11.428;2024-01-30T07:13:31;96905.47;;;0.30;73.74
38225;BME280;24025;48.138;11.428;2024-01-30T07:16:03;96897.84;;;0.33;73.54
38225;BME280;24025;48.138;11.428;2024-01-30T07:18:35;96896.78;;;0.34;74.01
38225;BME280;24025;48.138;11.428;2024-01-30T07:21:06;96894.69;;;0.41;73.77
38225;BME280;24025;48.138;11.428;2024-01-30T07:23:38;96897.84;;;0.43;73.69
38225;BME280;24025;48.138;11.428;2024-01-30T07:26:13;96897.84;;;0.48;73.36
38225;BME280;24025;48.138;11.428;2024-01-30T07:28:44;96898.63;;;0.49;73.75
38225;BME280;24025;48.138;11.428;2024-01-30T07:31:16;96899.66;;;0.58;72.88
38225;BME280;24025;48.138;11.428;2024-01-30T07:33:47;96901.53;;;0.63;73.21
38225;BME280;24025;48.138;11.428;2024-01-30T07:36:19;96899.16;;;0.66;73.40
38225;BME280;24025;48.138;11.428;2024-01-30T07:38:51;96901.50;;;0.68;73.60
38225;BME280;24025;48.138;11.428;2024-01-30T07:41:25;96914.34;;;0.74;73.55
38225;BME280;24025;48.138;11.428;2024-01-30T07:43:56;96912.25;;;0.81;73.63
38225;BME280;24025;48.138;11.428;2024-01-30T07:46:28;96910.16;;;0.89;73.20
38225;BME280;24025;48.138;11.428;2024-01-30T07:48:59;96915.88;;;0.96;73.36
38225;BME280;24025;48.138;11.428;2024-01-30T07:51:31;96920.91;;;0.97;73.58
38225;BME280;24025;48.138;11.428;2024-01-30T07:54:04;96916.69;;;1.01;74.00
38225;BME280;24025;48.138;11.428;2024-01-30T07:56:36;96922.97;;;1.10;73.30
38225;BME280;24025;48.138;11.428;2024-01-30T07:59:10;96923.19;;;1.19;73.66
38225;BME280;24025;48.138;11.428;2024-01-30T08:01:42;96926.06;;;1.28;73.05
38225;BME280;24025;48.138;11.428;2024-01-30T08:04:14;96921.31;;;1.35;73.31
38225;BME280;24025;48.138;11.428;2024-01-30T08:06:45;96932.06;;;1.38;73.74
38225;BME280;24025;48.138;11.428;2024-01-30T08:09:17;96927.59;;;1.44;73.57
38225;BME280;24025;48.138;11.428;2024-01-30T08:11:48;96926.78;;;1.49;73.44
38225;BME280;24025;48.138;11.428;2024-01-30T08:14:20;96931.47;;;1.62;73.05
38225;BME280;24025;48.138;11.428;2024-01-30T08:16:51;96930.13;;;1.64;73.86
38225;BME280;24025;48.138;11.428;2024-01-30T08:19:23;96930.13;;;1.69;73.50
38225;BME280;24025;48.138;11.428;2024-01-30T08:21:54;96927.44;;;1.80;72.89
38225;BME280;24025;48.138;11.428;2024-01-30T08:24:27;96924.75;;;1.85;73.49
38225;BME280;24025;48.138;11.428;2024-01-30T08:26:58;96924.72;;;1.95;73.23
38225;BME280;24025;48.138;11.428;2024-01-30T08:29:30;96927.31;;;2.00;73.43
38225;BME280;24025;48.138;11.428;2024-01-30T08:32:02;96925.72;;;2.04;74.17
38225;BME280;24025;48.138;11.428;2024-01-30T08:34:33;96926.72;;;2.13;73.44
38225;BME280;24025;48.138;11.428;2024-01-30T08:37:05;96926.94;;;2.22;72.73
38225;BME280;24025;48.138;11.428;2024-01-30T08:39:37;96924.03;;;2.23;73.34
38225;BME280;24025;48.138;11.428;2024-01-30T08:42:08;96921.31;;;2.34;72.95
38225;BME280;24025;48.138;11.428;2024-01-30T08:44:40;96917.59;;;2.40;73.15
38225;BME280;24025;48.138;11.428;2024-01-30T08:47:11;96917.03;;;2.43;74.16
38225;BME280;24025;48.138;11.428;2024-01-30T08:49:43;96914.88;;;2.50;74.10
38225;BME280;24025;48.138;11.428;2024-01-30T08:52:15;96917.94;;;2.62;73.32
38225;BME280;24025;48.138;11.428;2024-01-30T08:54:46;96918.91;;;2.71;73.93
38225;BME280;24025;48.138;11.428;2024-01-30T08:57:18;96917.53;;;2.79;74.01
38225;BME280;24025;48.138;11.428;2024-01-30T08:59:50;96921.13;;;2.88;73.77
38225;BME280;24025;48.138;11.428;2024-01-30T09:02:21;96925.00;;;2.96;73.62
38225;BME280;24025;48.138;11.428;2024-01-30T09:04:53;96929.16;;;3.02;73.65
38225;BME280;24025;48.138;11.428;2024-01-30T09:07:25;96926.72;;;3.10;73.19
38225;BME280;24025;48.138;11.428;2024-01-30T09:09:56;96932.38;;;3.23;72.34
38225;BME280;24025;48.138;11.428;2024-01-30T09:12:28;96939.66;;;3.31;72.81
38225;BME280;24025;48.138;11.428;2024-01-30T09:14:59;96936.88;;;3.46;71.54
38225;BME280;24025;48.138;11.428;2024-01-30T09:17:31;96945.38;;;3.62;70.44
38225;BME280;24025;48.138;11.428;2024-01-30T09:20:03;96937.00;;;3.79;69.71
38225;BME280;24025;48.138;11.428;2024-01-30T09:22:34;96932.59;;;3.93;69.70
38225;BME280;24025;48.138;11.428;2024-01-30T09:25:06;96938.97;;;4.11;68.76
38225;BME280;24025;48.138;11.428;2024-01-30T09:27:37;96945.88;;;4.25;68.51
38225;BME280;24025;48.138;11.428;2024-01-30T09:30:09;96945.44;;;4.37;67.48
38225;BME280;24025;48.138;11.428;2024-01-30T09:32:41;96946.31;;;4.51;67.17
38225;BME280;24025;48.138;11.428;2024-01-30T09:35:13;96950.06;;;4.64;66.03
38225;BME280;24025;48.138;11.428;2024-01-30T09:37:45;96945.00;;;4.81;65.84
38225;BME280;24025;48.138;11.428;2024-01-30T09:40:16;96941.63;;;4.95;65.38
38225;BME280;24025;48.138;11.428;2024-01-30T09:42:52;96948.22;;;5.11;64.39
38225;BME280;24025;48.138;11.428;2024-01-30T09:45:24;96947.47;;;5.24;64.04
38225;BME280;24025;48.138;11.428;2024-01-30T09:47:58;96949.53;;;5.41;63.44
38225;BME280;24025;48.138;11.428;2024-01-30T09:50:30;96939.22;;;5.53;63.76
38225;BME280;24025;48.138;11.428;2024-01-30T09:53:02;96948.06;;;5.62;62.89
38225;BME280;24025;48.138;11.428;2024-01-30T09:55:35;96945.28;;;5.81;63.10
38225;BME280;24025;48.138;11.428;2024-01-30T09:58:07;96941.00;;;5.85;61.83
38225;BME280;24025;48.138;11.428;2024-01-30T10:00:39;96943.44;;;5.95;62.40
38225;BME280;24025;48.138;11.428;2024-01-30T10:03:10;96943.72;;;6.08;62.65
38225;BME280;24025;48.138;11.428;2024-01-30T10:05:42;96935.28;;;6.19;62.32
38225;BME280;24025;48.138;11.428;2024-01-30T10:08:18;96940.81;;;6.32;62.56
38225;BME280;24025;48.138;11.428;2024-01-30T10:10:53;96939.50;;;6.43;62.60
38225;BME280;24025;48.138;11.428;2024-01-30T10:13:24;96943.19;;;6.56;62.19
38225;BME280;24025;48.138;11.428;2024-01-30T10:15:56;96944.19;;;6.68;61.52
38225;BME280;24025;48.138;11.428;2024-01-30T10:18:30;96941.97;;;6.84;60.44
38225;BME280;24025;48.138;11.428;2024-01-30T10:21:02;96943.47;;;6.99;60.64
38225;BME280;24025;48.138;11.428;2024-01-30T10:23:34;96939.00;;;7.08;58.86
38225;BME280;24025;48.138;11.428;2024-01-30T10:26:07;96933.28;;;7.23;59.89
38225;BME280;24025;48.138;11.428;2024-01-30T10:28:46;96930.06;;;7.35;57.05
38225;BME280;24025;48.138;11.428;2024-01-30T10:31:17;96924.16;;;7.47;57.60
38225;BME280;24025;48.138;11.428;2024-01-30T10:33:49;96926.56;;;7.65;57.16
38225;BME280;24025;48.138;11.428;2024-01-30T10:36:21;96919.44;;;7.83;57.75
38225;BME280;24025;48.138;11.428;2024-01-30T10:38:58;96915.53;;;7.89;54.81
38225;BME280;24025;48.138;11.428;2024-01-30T10:41:31;96916.19;;;8.12;55.68
38225;BME280;24025;48.138;11.428;2024-01-30T10:44:08;96912.50;;;8.39;54.23
38225;BME280;24025;48.138;11.428;2024-01-30T10:46:40;96908.72;;;8.58;52.47
38225;BME280;24025;48.138;11.428;2024-01-30T10:49:13;96896.34;;;8.70;51.20
38225;BME280;24025;48.138;11.428;2024-01-30T10:51:45;96896.75;;;8.98;50.06
38225;BME280;24025;48.138;11.428;2024-01-30T10:54:18;96886.34;;;9.23;47.33
38225;BME280;24025;48.138;11.428;2024-01-30T10:56:51;96887.22;;;9.35;44.96
38225;BME280;24025;48.138;11.428;2024-01-30T10:59:23;96889.50;;;9.54;44.36
38225;BME280;24025;48.138;11.428;2024-01-30T11:01:57;96890.81;;;9.69;44.44
38225;BME280;24025;48.138;11.428;2024-01-30T11:04:35;96884.22;;;9.96;45.07
38225;BME280;24025;48.138;11.428;2024-01-30T11:07:15;96882.97;;;10.14;42.76
38225;BME280;24025;48.138;11.428;2024-01-30T11:09:50;96882.03;;;10.40;42.95
38225;BME280;24025;48.138;11.428;2024-01-30T11:12:25;96882.53;;;10.54;43.80
38225;BME280;24025;48.138;11.428;2024-01-30T11:15:06;96881.84;;;10.90;43.78
38225;BME280;24025;48.138;11.428;2024-01-30T11:20:19;96873.78;;;11.23;43.12
38225;BME280;24025;48.138;11.428;2024-01-30T11:22:51;96871.13;;;11.48;41.59
38225;BME280;24025;48.138;11.428;2024-01-30T11:25:23;96863.00;;;11.93;41.62
38225;BME280;24025;48.138;11.428;2024-01-30T11:27:55;96856.13;;;12.48;41.22
38225;BME280;24025;48.138;11.428;2024-01-30T11:30:28;96853.78;;;12.90;41.89
38225;BME280;24025;48.138;11.428;2024-01-30T11:33:06;96844.91;;;13.02;40.33
38225;BME280;24025;48.138;11.428;2024-01-30T11:35:40;96852.34;;;13.40;40.23
38225;BME280;24025;48.138;11.428;2024-01-30T11:38:13;96851.72;;;13.98;37.62
38225;BME280;24025;48.138;11.428;2024-01-30T11:40:46;96839.38;;;14.32;37.78
38225;BME280;24025;48.138;11.428;2024-01-30T11:43:19;96847.34;;;14.28;36.70
38225;BME280;24025;48.138;11.428;2024-01-30T11:45:51;96843.00;;;14.59;36.56
38225;BME280;24025;48.138;11.428;2024-01-30T11:48:23;96846.88;;;14.61;34.30
38225;BME280;24025;48.138;11.428;2024-01-30T11:50:55;96844.81;;;14.97;34.49
38225;BME280;24025;48.138;11.428;2024-01-30T11:53:27;96841.25;;;15.12;33.97
38225;BME280;24025;48.138;11.428;2024-01-30T11:55:58;96834.47;;;15.71;35.15
38225;BME280;24025;48.138;11.428;2024-01-30T11:58:30;96835.66;;;15.47;33.73
38225;BME280;24025;48.138;11.428;2024-01-30T12:01:01;96841.47;;;15.26;34.26
38225;BME280;24025;48.138;11.428;2024-01-30T12:03:37;96830.00;;;14.84;33.59
38225;BME280;24025;48.138;11.428;2024-01-30T12:06:08;96826.53;;;14.60;34.11
38225;BME280;24025;48.138;11.428;2024-01-30T12:08:40;96832.34;;;15.08;35.02
38225;BME280;24025;48.138;11.428;2024-01-30T12:11:12;96833.09;;;15.09;34.67
38225;BME280;24025;48.138;11.428;2024-01-30T12:13:43;96822.78;;;15.11;33.65
38225;BME280;24025;48.138;11.428;2024-01-30T12:16:15;96813.38;;;15.73;32.95
38225;BME280;24025;48.138;11.428;2024-01-30T12:18:46;96813.56;;;15.88;31.91
38225;BME280;24025;48.138;11.428;2024-01-30T12:21:18;96804.28;;;16.86;31.85
38225;BME280;24025;48.138;11.428;2024-01-30T12:23:49;96802.78;;;17.33;30.57
38225;BME280;24025;48.138;11.428;2024-01-30T12:26:21;96802.28;;;17.75;32.14
38225;BME280;24025;48.138;11.428;2024-01-30T12:28:55;96797.78;;;17.97;28.71
38225;BME280;24025;48.138;11.428;2024-01-30T12:31:31;96799.03;;;18.21;29.05
38225;BME280;24025;48.138;11.428;2024-01-30T12:34:04;96792.44;;;18.11;28.86
38225;BME280;24025;48.138;11.428;2024-01-30T12:36:35;96786.63;;;18.05;28.15
38225;BME280;24025;48.138;11.428;2024-01-30T12:39:10;96788.94;;;18.03;27.76
38225;BME280;24025;48.138;11.428;2024-01-30T12:41:42;96787.31;;;17.88;27.49
38225;BME280;24025;48.138;11.428;2024-01-30T12:44:13;96784.97;;;17.79;27.83
38225;BME280;24025;48.138;11.428;2024-01-30T12:46:46;96782.03;;;17.47;27.81
38225;BME280;24025;48.138;11.428;2024-01-30T12:49:19;96774.81;;;17.66;27.92
38225;BME280;24025;48.138;11.428;2024-01-30T12:51:50;96779.44;;;18.59;27.72
38225;BME280;24025;48.138;11.428;2024-01-30T12:54:22;96765.16;;;19.51;26.54
38225;BME280;24025;48.138;11.428;2024-01-30T12:56:54;96768.78;;;20.36;24.66
38225;BME280;24025;48.138;11.428;2024-01-30T12:59:25;96755.88;;;21.13;24.05
38225;BME280;24025;48.138;11.428;2024-01-30T13:01:58;96766.13;;;21.40;23.79
38225;BME280;24025;48.138;11.428;2024-01-30T13:04:30;96765.91;;;21.95;23.29
38225;BME280;24025;48.138;11.428;2024-01-30T13:07:02;96762.78;;;21.21;23.38
38225;BME280;24025;48.138;11.428;2024-01-30T13:09:33;96761.22;;;21.65;22.78
38225;BME280;24025;48.138;11.428;2024-01-30T13:12:05;96763.72;;;21.49;23.27
38225;BME280;24025;48.138;11.428;2024-01-30T13:14:38;96763.81;;;20.90;23.50
38225;BME280;24025;48.138;11.428;2024-01-30T13:17:12;96771.47;;;20.36;24.21
38225;BME280;24025;48.138;11.428;2024-01-30T13:19:43;96775.91;;;19.98;25.00
38225;BME280;24025;48.138;11.428;2024-01-30T13:22:15;96773.31;;;19.62;26.32
38225;BME280;24025;48.138;11.428;2024-01-30T13:24:47;96780.69;;;19.26;26.11